createdAt,value
2023-07-25T00:00:49.489Z,55.19
2023-07-25T00:03:15.858Z,55.01
2023-07-25T00:05:42.223Z,55.16
2023-07-25T00:08:08.587Z,54.90
2023-07-25T00:10:35.496Z,55.05
2023-07-25T00:13:01.854Z,54.89
2023-07-25T00:15:28.225Z,55.01
2023-07-25T00:17:54.616Z,54.86
2023-07-25T00:20:20.971Z,54.95
2023-07-25T00:22:47.391Z,54.86
2023-07-25T00:25:13.838Z,54.83
2023-07-25T00:27:40.218Z,54.82
2023-07-25T00:30:06.810Z,55.02
2023-07-25T00:32:36.373Z,54.69
2023-07-25T00:35:03.014Z,54.89
2023-07-25T00:37:32.408Z,54.66
2023-07-25T00:39:58.810Z,54.70
2023-07-25T00:42:25.227Z,54.75
2023-07-25T00:44:51.797Z,54.71
2023-07-25T00:47:18.831Z,54.65
2023-07-25T00:49:45.185Z,54.87
2023-07-25T00:52:11.534Z,54.84
2023-07-25T00:54:41.047Z,54.67
2023-07-25T00:57:07.444Z,54.66
2023-07-25T00:59:33.842Z,54.81
2023-07-25T01:02:00.257Z,54.84
2023-07-25T01:04:26.831Z,54.58
2023-07-25T01:06:53.630Z,54.60
2023-07-25T01:09:38.958Z,54.56
2023-07-25T01:12:05.588Z,54.54
2023-07-25T01:14:32.722Z,54.70
2023-07-25T01:17:15.294Z,54.55
2023-07-25T01:19:42.710Z,54.67
2023-07-25T01:22:09.262Z,54.47
2023-07-25T01:24:42.019Z,54.63
2023-07-25T01:27:08.449Z,54.72
2023-07-25T01:29:34.835Z,54.52
2023-07-25T01:32:01.188Z,54.35
2023-07-25T01:34:27.622Z,54.52
2023-07-25T01:36:54.008Z,54.59
2023-07-25T01:39:20.354Z,54.41
2023-07-25T01:41:46.765Z,54.31
2023-07-25T01:44:13.173Z,54.33
2023-07-25T01:46:40.071Z,54.48
2023-07-25T01:49:06.447Z,54.27
2023-07-25T01:51:33.042Z,54.36
2023-07-25T01:54:00.022Z,54.43
2023-07-25T01:56:26.645Z,54.32
2023-07-25T01:58:53.068Z,54.32
2023-07-25T02:01:19.529Z,54.43
2023-07-25T02:03:46.315Z,54.23
2023-07-25T02:06:12.711Z,54.20
2023-07-25T02:08:39.093Z,54.27
2023-07-25T02:11:05.611Z,54.14
2023-07-25T02:13:31.961Z,54.25
2023-07-25T02:15:58.339Z,54.45
2023-07-25T02:18:24.744Z,54.32
2023-07-25T02:20:51.099Z,54.32
2023-07-25T02:23:17.474Z,54.29
2023-07-25T02:25:47.176Z,54.38
2023-07-25T02:28:13.626Z,54.23
2023-07-25T02:30:40.105Z,54.17
2023-07-25T02:33:06.977Z,54.12
2023-07-25T02:35:33.381Z,53.96
2023-07-25T02:37:59.749Z,53.87
2023-07-25T02:40:26.928Z,54.06
2023-07-25T02:42:53.284Z,54.04
2023-07-25T02:45:19.648Z,54.05
2023-07-25T02:47:46.095Z,54.13
2023-07-25T02:50:12.551Z,53.96
2023-07-25T02:52:38.938Z,53.78
2023-07-25T02:55:06.451Z,54.01
2023-07-25T02:57:33.048Z,53.94
2023-07-25T02:59:59.429Z,53.64
2023-07-25T03:02:25.851Z,53.84
2023-07-25T03:04:52.324Z,53.93
2023-07-25T03:07:19.005Z,53.80
2023-07-25T03:09:45.376Z,53.76
2023-07-25T03:12:11.940Z,53.70
2023-07-25T03:14:38.301Z,53.85
2023-07-25T03:17:04.712Z,53.75
2023-07-25T03:19:31.080Z,53.75
2023-07-25T03:21:57.526Z,53.69
2023-07-25T03:24:23.959Z,53.81
2023-07-25T03:26:50.342Z,53.81
2023-07-25T03:29:16.695Z,53.65
2023-07-25T03:31:43.244Z,53.67
2023-07-25T03:34:09.654Z,53.70
2023-07-25T03:36:36.079Z,53.83
2023-07-25T03:39:03.870Z,53.89
2023-07-25T03:41:30.589Z,53.68
2023-07-25T03:43:57.180Z,53.59
2023-07-25T03:46:23.642Z,53.40
2023-07-25T03:48:50.005Z,53.69
2023-07-25T03:51:16.378Z,53.70
2023-07-25T03:53:43.020Z,53.50
2023-07-25T03:56:09.374Z,53.67
2023-07-25T03:58:35.730Z,53.62
2023-07-25T04:01:02.109Z,53.54
2023-07-25T04:03:28.625Z,53.58
2023-07-25T04:05:55.202Z,53.55
2023-07-25T04:08:21.599Z,53.46
2023-07-25T04:10:48.009Z,53.72
2023-07-25T04:13:14.378Z,53.50
2023-07-25T04:15:40.728Z,53.45
2023-07-25T04:18:07.129Z,53.51
2023-07-25T04:20:33.508Z,53.38
2023-07-25T04:23:00.405Z,53.52
2023-07-25T04:25:26.849Z,53.33
2023-07-25T04:27:53.219Z,53.47
2023-07-25T04:30:19.571Z,53.35
2023-07-25T04:32:46.045Z,53.42
2023-07-25T04:35:12.618Z,53.45
2023-07-25T04:37:39.293Z,53.41
2023-07-25T04:40:06.285Z,53.31
2023-07-25T04:42:32.641Z,53.36
2023-07-25T04:44:59.257Z,53.35
2023-07-25T04:47:25.770Z,53.34
2023-07-25T04:49:52.177Z,53.33
2023-07-25T04:52:18.569Z,53.36
2023-07-25T04:54:44.941Z,53.37
2023-07-25T04:57:11.527Z,53.41
2023-07-25T04:59:37.884Z,53.31
2023-07-25T05:02:04.284Z,53.42
2023-07-25T05:04:30.655Z,53.26
2023-07-25T05:06:57.083Z,53.37
2023-07-25T05:09:23.524Z,53.23
2023-07-25T05:11:52.184Z,53.30
2023-07-25T05:14:18.831Z,53.12
2023-07-25T05:16:45.556Z,53.15
2023-07-25T05:19:11.949Z,53.17
2023-07-25T05:21:38.310Z,53.05
2023-07-25T05:24:04.714Z,52.78
2023-07-25T05:26:31.112Z,52.47
2023-07-25T05:28:57.459Z,52.33
2023-07-25T05:31:23.930Z,52.24
2023-07-25T05:33:50.338Z,52.16
2023-07-25T05:36:16.711Z,52.46
2023-07-25T05:38:43.107Z,52.39
2023-07-25T05:41:09.458Z,52.07
2023-07-25T05:43:35.823Z,52.30
2023-07-25T05:46:02.233Z,52.01
2023-07-25T05:48:28.665Z,52.16
2023-07-25T05:50:55.025Z,52.34
2023-07-25T05:53:21.440Z,52.20
2023-07-25T05:55:47.933Z,52.33
2023-07-25T05:58:14.718Z,52.05
2023-07-25T06:00:41.195Z,52.19
2023-07-25T06:03:07.671Z,52.17
2023-07-25T06:05:36.981Z,52.31
2023-07-25T06:08:03.332Z,52.44
2023-07-25T06:10:29.737Z,52.32
2023-07-25T06:12:56.107Z,52.35
2023-07-25T06:15:22.477Z,52.46
2023-07-25T06:17:48.870Z,52.50
2023-07-25T06:20:15.258Z,52.49
2023-07-25T06:22:41.636Z,52.05
2023-07-25T06:25:08.804Z,50.34
2023-07-25T06:27:35.210Z,50.31
2023-07-25T06:30:04.542Z,51.60
2023-07-25T06:32:31.384Z,52.35
2023-07-25T06:34:57.826Z,51.92
2023-07-25T06:37:24.222Z,52.00
2023-07-25T06:39:50.623Z,51.60
2023-07-25T06:42:16.999Z,51.07
2023-07-25T06:44:43.346Z,51.29
2023-07-25T06:47:09.802Z,51.19
2023-07-25T06:49:36.165Z,51.79
2023-07-25T06:52:02.574Z,51.95
2023-07-25T06:54:29.178Z,52.47
2023-07-25T06:56:55.554Z,52.17
2023-07-25T06:59:21.909Z,52.82
2023-07-25T07:01:48.285Z,53.21
2023-07-25T07:04:14.740Z,51.80
2023-07-25T07:06:41.190Z,52.45
2023-07-25T07:09:07.548Z,52.20
2023-07-25T07:11:34.175Z,51.93
2023-07-25T07:14:00.824Z,52.58
2023-07-25T07:16:27.236Z,51.80
2023-07-25T07:18:53.913Z,51.84
2023-07-25T07:21:20.280Z,52.39
2023-07-25T07:23:46.662Z,52.59
2023-07-25T07:26:13.029Z,51.55
2023-07-25T07:28:40.206Z,51.93
2023-07-25T07:31:10.005Z,52.54
2023-07-25T07:33:36.548Z,51.56
2023-07-25T07:36:02.911Z,51.24
2023-07-25T07:38:29.276Z,51.63
2023-07-25T07:40:55.627Z,51.42
2023-07-25T07:43:22.018Z,50.61
2023-07-25T07:45:48.887Z,50.02
2023-07-25T07:48:15.250Z,49.61
2023-07-25T07:50:41.596Z,49.79
2023-07-25T07:53:07.958Z,50.08
2023-07-25T07:55:34.316Z,50.02
2023-07-25T07:58:01.322Z,50.74
2023-07-25T08:00:27.903Z,50.00
2023-07-25T08:02:54.298Z,50.45
2023-07-25T08:05:20.742Z,50.09
2023-07-25T08:07:47.235Z,50.32
2023-07-25T08:10:13.713Z,50.02
2023-07-25T08:12:40.222Z,50.08
2023-07-25T08:15:07.006Z,50.43
2023-07-25T08:17:33.419Z,50.65
2023-07-25T08:20:00.107Z,50.36
2023-07-25T08:22:26.485Z,50.19
2023-07-25T08:24:53.128Z,50.14
2023-07-25T08:27:19.515Z,49.96
2023-07-25T08:29:48.874Z,49.87
2023-07-25T08:32:15.948Z,49.93
2023-07-25T08:34:42.926Z,49.81
2023-07-25T08:37:09.394Z,49.56
2023-07-25T08:39:35.839Z,49.61
2023-07-25T08:42:04.776Z,49.39
2023-07-25T08:44:31.137Z,49.47
2023-07-25T08:46:57.827Z,49.49
2023-07-25T08:49:24.872Z,49.59
2023-07-25T08:51:54.493Z,49.24
2023-07-25T08:54:38.860Z,49.53
2023-07-25T08:57:05.395Z,49.16
2023-07-25T08:59:32.060Z,49.25
2023-07-25T09:01:58.623Z,49.15
2023-07-25T09:04:25.500Z,48.95
2023-07-25T09:06:52.022Z,48.67
2023-07-25T09:09:18.526Z,48.52
2023-07-25T09:11:45.487Z,48.49
2023-07-25T09:14:12.197Z,48.76
2023-07-25T09:16:38.616Z,48.85
2023-07-25T09:19:05.009Z,48.49
2023-07-25T09:21:31.677Z,48.72
2023-07-25T09:23:59.021Z,48.41
2023-07-25T09:26:26.554Z,48.32
2023-07-25T09:28:53.699Z,48.21
2023-07-25T09:31:23.092Z,48.13
2023-07-25T09:33:49.803Z,48.03
2023-07-25T09:36:16.282Z,48.18
2023-07-25T09:38:54.935Z,47.74
2023-07-25T09:41:21.875Z,48.11
2023-07-25T09:43:48.245Z,47.77
2023-07-25T09:46:14.825Z,48.06
2023-07-25T09:48:48.936Z,47.47
2023-07-25T09:51:15.424Z,47.73
2023-07-25T09:53:45.367Z,47.86
2023-07-25T09:56:11.743Z,47.60
2023-07-25T09:58:44.519Z,47.62
2023-07-25T10:01:17.660Z,47.56
2023-07-25T10:03:44.890Z,47.73
2023-07-25T10:06:18.087Z,47.43
2023-07-25T10:08:47.117Z,47.47
2023-07-25T10:11:13.784Z,47.67
2023-07-25T10:13:42.932Z,47.39
2023-07-25T10:16:09.631Z,47.09
2023-07-25T10:18:36.337Z,47.23
2023-07-25T10:21:03.065Z,47.41
2023-07-25T10:23:29.997Z,47.24
2023-07-25T10:25:56.382Z,47.37
2023-07-25T10:28:23.521Z,47.24
2023-07-25T10:30:49.957Z,47.11
2023-07-25T10:33:17.018Z,47.15
2023-07-25T10:35:55.851Z,46.99
2023-07-25T10:38:34.392Z,47.67
2023-07-25T10:41:01.386Z,46.93
2023-07-25T10:43:29.062Z,47.94
2023-07-25T10:45:56.165Z,48.07
2023-07-25T10:48:32.386Z,48.49
2023-07-25T10:50:58.979Z,48.35
2023-07-25T10:53:25.775Z,48.46
2023-07-25T10:56:07.718Z,48.96
2023-07-25T10:58:38.577Z,49.00
2023-07-25T11:01:05.143Z,49.51
2023-07-25T11:03:32.654Z,50.14
2023-07-25T11:06:08.237Z,50.50
2023-07-25T11:08:38.232Z,50.67
2023-07-25T11:11:08.423Z,50.93
2023-07-25T11:13:35.391Z,50.52
2023-07-25T11:16:02.254Z,51.25
2023-07-25T11:18:28.690Z,51.34
2023-07-25T11:21:02.048Z,50.96
2023-07-25T11:23:28.427Z,51.16
2023-07-25T11:25:55.482Z,50.64
2023-07-25T11:28:22.052Z,49.80
2023-07-25T11:30:48.619Z,51.13
2023-07-25T11:33:15.021Z,50.25
2023-07-25T11:35:41.487Z,50.81
2023-07-25T11:38:07.918Z,50.94
2023-07-25T11:40:34.304Z,51.08
2023-07-25T11:43:00.705Z,50.61
2023-07-25T11:45:27.323Z,51.21
2023-07-25T11:47:53.774Z,51.29
2023-07-25T11:50:26.320Z,52.60
2023-07-25T11:52:55.671Z,54.02
2023-07-25T11:55:22.062Z,55.51
2023-07-25T11:57:48.832Z,55.09
2023-07-25T12:00:17.233Z,55.22
2023-07-25T12:02:43.786Z,56.40
2023-07-25T12:05:10.458Z,55.71
2023-07-25T12:07:52.145Z,55.13
2023-07-25T12:10:27.949Z,55.12
2023-07-25T12:12:55.081Z,54.99
2023-07-25T12:15:21.458Z,55.79
2023-07-25T12:17:47.973Z,55.70
2023-07-25T12:20:15.161Z,55.95
2023-07-25T12:22:41.532Z,55.43
2023-07-25T12:25:08.003Z,54.52
2023-07-25T12:27:34.470Z,54.65
2023-07-25T12:30:00.834Z,55.22
2023-07-25T12:32:27.213Z,55.50
2023-07-25T12:35:00.363Z,55.34
2023-07-25T12:37:26.739Z,54.71
2023-07-25T12:39:53.130Z,54.89
2023-07-25T12:42:19.495Z,54.37
2023-07-25T12:44:45.859Z,53.91
2023-07-25T12:47:12.208Z,52.63
2023-07-25T12:49:38.560Z,52.69
2023-07-25T12:52:05.118Z,51.74
2023-07-25T12:54:31.498Z,51.14
2023-07-25T12:56:57.887Z,50.80
2023-07-25T12:59:24.273Z,50.16
2023-07-25T13:01:50.780Z,50.73
2023-07-25T13:04:17.330Z,50.41
2023-07-25T13:06:44.328Z,50.08
2023-07-25T13:09:10.716Z,49.95
2023-07-25T13:11:37.083Z,49.87
2023-07-25T13:14:03.760Z,49.44
2023-07-25T13:16:30.473Z,49.43
2023-07-25T13:18:57.286Z,49.49
2023-07-25T13:21:23.693Z,49.88
2023-07-25T13:23:50.077Z,50.04
2023-07-25T13:26:16.461Z,49.99
2023-07-25T13:28:42.863Z,49.85
2023-07-25T13:31:09.259Z,49.50
2023-07-25T13:33:35.749Z,49.31
2023-07-25T13:36:02.157Z,49.53
2023-07-25T13:38:28.517Z,49.46
2023-07-25T13:40:54.921Z,49.58
2023-07-25T13:43:21.385Z,49.07
2023-07-25T13:45:52.560Z,48.98
2023-07-25T13:48:19.910Z,49.21
2023-07-25T13:50:52.683Z,48.83
2023-07-25T13:53:19.831Z,48.66
2023-07-25T13:55:46.236Z,48.53
2023-07-25T14:00:49.334Z,49.22
2023-07-25T14:03:15.745Z,48.05
2023-07-25T14:05:42.124Z,48.32
2023-07-25T14:08:08.909Z,48.56
2023-07-25T14:10:36.406Z,48.77
2023-07-25T14:13:02.814Z,48.57
2023-07-25T14:15:31.497Z,49.62
2023-07-25T14:17:58.128Z,48.70
2023-07-25T14:20:25.137Z,48.56
2023-07-25T14:22:51.505Z,48.35
2023-07-25T14:25:17.877Z,48.72
2023-07-25T14:27:44.295Z,48.45
2023-07-25T14:30:10.768Z,48.55
2023-07-25T14:32:37.177Z,47.89
2023-07-25T14:35:04.350Z,47.80
2023-07-25T14:37:36.980Z,48.23
2023-07-25T14:40:10.761Z,48.17
2023-07-25T14:42:37.161Z,47.60
2023-07-25T14:45:03.583Z,47.22
2023-07-25T14:47:30.040Z,47.98
2023-07-25T14:49:56.486Z,47.85
2023-07-25T14:52:22.860Z,47.94
2023-07-25T14:54:49.217Z,48.39
2023-07-25T14:57:17.963Z,48.43
2023-07-25T14:59:44.628Z,48.22
2023-07-25T15:02:11.206Z,47.97
2023-07-25T15:04:37.610Z,47.91
2023-07-25T15:07:03.975Z,47.82
2023-07-25T15:09:30.372Z,48.00
2023-07-25T15:11:56.737Z,48.02
2023-07-25T15:14:24.908Z,48.07
2023-07-25T15:16:51.485Z,48.03
2023-07-25T15:19:17.861Z,48.10
2023-07-25T15:21:44.288Z,48.39
2023-07-25T15:24:10.665Z,48.45
2023-07-25T15:26:37.032Z,48.41
2023-07-25T15:29:03.753Z,48.53
2023-07-25T15:31:30.925Z,48.52
2023-07-25T15:33:57.565Z,48.26
2023-07-25T15:36:24.014Z,48.50
2023-07-25T15:38:50.408Z,48.40
2023-07-25T15:41:16.757Z,48.32
2023-07-25T15:43:43.149Z,48.55
2023-07-25T15:46:09.597Z,48.35
2023-07-25T15:48:35.967Z,48.72
2023-07-25T15:51:02.336Z,48.37
2023-07-25T15:53:28.741Z,48.77
2023-07-25T15:55:55.126Z,49.32
2023-07-25T15:58:21.509Z,49.74
2023-07-25T16:00:47.917Z,50.11
2023-07-25T16:03:14.377Z,50.17
2023-07-25T16:05:40.796Z,51.43
2023-07-25T16:08:07.142Z,51.61
2023-07-25T16:10:33.518Z,51.59
2023-07-25T16:13:02.767Z,51.34
2023-07-25T16:15:33.199Z,51.04
2023-07-25T16:18:00.443Z,50.92
2023-07-25T16:20:27.053Z,50.50
2023-07-25T16:22:53.400Z,49.00
2023-07-25T16:25:19.784Z,48.98
2023-07-25T16:27:46.134Z,48.89
2023-07-25T16:30:12.527Z,48.23
2023-07-25T16:32:38.889Z,48.33
2023-07-25T16:35:05.399Z,47.83
2023-07-25T16:37:31.771Z,49.25
2023-07-25T16:39:58.131Z,49.08
2023-07-25T16:42:24.561Z,49.32
2023-07-25T16:44:50.911Z,47.95
2023-07-25T16:47:19.652Z,49.67
2023-07-25T16:49:46.049Z,48.41
2023-07-25T16:52:12.431Z,49.30
2023-07-25T16:54:38.769Z,50.44
2023-07-25T16:57:05.171Z,53.02
2023-07-25T16:59:31.562Z,52.98
2023-07-25T17:01:58.763Z,52.78
2023-07-25T17:04:25.193Z,52.82
2023-07-25T17:06:51.560Z,53.07
2023-07-25T17:09:18.404Z,53.09
2023-07-25T17:11:44.887Z,52.54
2023-07-25T17:14:11.274Z,51.90
2023-07-25T17:16:37.658Z,50.07
2023-07-25T17:19:04.035Z,50.32
2023-07-25T17:21:40.589Z,50.61
2023-07-25T17:24:08.233Z,49.46
2023-07-25T17:26:34.597Z,47.28
2023-07-25T17:29:00.966Z,47.46
2023-07-25T17:31:27.535Z,47.00
2023-07-25T17:33:54.026Z,46.42
2023-07-25T17:36:20.474Z,46.57
2023-07-25T17:38:46.849Z,46.16
2023-07-25T17:41:14.755Z,46.79
2023-07-25T17:43:41.138Z,47.20
2023-07-25T17:46:07.528Z,46.67
2023-07-25T17:48:34.502Z,47.08
2023-07-25T17:51:00.854Z,47.01
2023-07-25T17:53:27.636Z,47.24
2023-07-25T17:55:55.970Z,47.16
2023-07-25T17:58:22.382Z,47.50
2023-07-25T18:00:50.364Z,47.35
2023-07-25T18:03:17.132Z,47.37
2023-07-25T18:05:46.186Z,47.73
2023-07-25T18:08:12.667Z,47.45
2023-07-25T18:10:39.015Z,47.63
2023-07-25T18:13:05.417Z,47.66
2023-07-25T18:15:31.799Z,47.75
2023-07-25T18:17:58.343Z,47.62
2023-07-25T18:20:24.869Z,47.88
2023-07-25T18:22:51.230Z,47.73
2023-07-25T18:25:17.631Z,47.59
2023-07-25T18:27:44.001Z,47.71
2023-07-25T18:30:10.530Z,47.65
2023-07-25T18:32:36.910Z,47.47
2023-07-25T18:35:03.366Z,47.71
2023-07-25T18:37:29.725Z,47.78
2023-07-25T18:39:56.168Z,47.79
2023-07-25T18:42:22.593Z,47.94
2023-07-25T18:44:49.159Z,47.91
2023-07-25T18:47:24.730Z,48.13
2023-07-25T18:49:55.406Z,48.15
2023-07-25T18:52:21.767Z,48.10
2023-07-25T18:54:48.148Z,48.13
2023-07-25T18:57:18.621Z,48.45
2023-07-25T18:59:44.976Z,48.28
2023-07-25T19:02:11.443Z,48.46
2023-07-25T19:04:37.824Z,48.61
2023-07-25T19:07:04.253Z,48.46
2023-07-25T19:09:30.609Z,48.83
2023-07-25T19:11:58.485Z,48.77
2023-07-25T19:14:24.863Z,48.86
2023-07-25T19:16:51.364Z,49.03
2023-07-25T19:19:17.986Z,49.03
2023-07-25T19:21:44.353Z,49.17
2023-07-25T19:24:10.717Z,48.98
2023-07-25T19:26:37.512Z,49.23
2023-07-25T19:29:03.904Z,49.18
2023-07-25T19:31:30.273Z,49.26
2023-07-25T19:33:57.655Z,49.48
2023-07-25T19:36:24.030Z,49.27
2023-07-25T19:38:50.472Z,49.61
2023-07-25T19:41:17.178Z,49.63
2023-07-25T19:43:43.550Z,49.58
2023-07-25T19:46:09.966Z,49.69
2023-07-25T19:48:36.354Z,49.80
2023-07-25T19:51:12.146Z,49.76
2023-07-25T19:53:38.570Z,49.72
2023-07-25T19:56:05.226Z,49.76
2023-07-25T19:58:31.607Z,49.78
2023-07-25T20:00:58.225Z,49.78
2023-07-25T20:03:25.079Z,49.71
2023-07-25T20:05:51.535Z,49.76
2023-07-25T20:08:17.951Z,49.57
2023-07-25T20:10:44.355Z,49.57
2023-07-25T20:13:10.786Z,49.61
2023-07-25T20:15:37.177Z,49.52
2023-07-25T20:18:03.548Z,49.43
2023-07-25T20:20:29.985Z,49.52
2023-07-25T20:22:56.379Z,49.46
2023-07-25T20:25:22.834Z,49.24
2023-07-25T20:27:49.220Z,49.26
2023-07-25T20:30:15.610Z,49.16
2023-07-25T20:32:42.083Z,49.16
2023-07-25T20:35:08.468Z,49.13
2023-07-25T20:37:34.838Z,49.24
2023-07-25T20:40:01.217Z,49.05
2023-07-25T20:42:27.688Z,49.13
2023-07-25T20:44:54.057Z,49.14
2023-07-25T20:47:20.413Z,49.21
2023-07-25T20:49:46.801Z,49.18
2023-07-25T20:52:13.176Z,49.25
2023-07-25T20:54:39.557Z,48.87
2023-07-25T20:57:06.043Z,48.93
2023-07-25T20:59:34.880Z,48.96
2023-07-25T21:02:01.284Z,49.04
2023-07-25T21:04:29.089Z,48.97
2023-07-25T21:06:55.663Z,48.91
2023-07-25T21:09:22.078Z,48.85
2023-07-25T21:11:48.511Z,48.86
2023-07-25T21:14:15.114Z,48.90
2023-07-25T21:16:41.704Z,48.64
2023-07-25T21:19:08.131Z,48.57
2023-07-25T21:21:34.714Z,48.53
2023-07-25T21:24:01.269Z,48.67
2023-07-25T21:26:27.645Z,48.60
2023-07-25T21:28:54.008Z,48.60
2023-07-25T21:31:20.388Z,48.65
2023-07-25T21:33:46.769Z,48.48
2023-07-25T21:36:14.140Z,48.56
2023-07-25T21:38:40.886Z,48.48
2023-07-25T21:41:07.814Z,48.56
2023-07-25T21:43:34.411Z,48.48
2023-07-25T21:46:01.327Z,48.56
2023-07-25T21:48:29.114Z,48.44
2023-07-25T21:50:55.622Z,48.41
2023-07-25T21:53:22.027Z,48.35
2023-07-25T21:55:48.444Z,48.26
2023-07-25T21:58:14.812Z,48.43
2023-07-25T22:00:41.869Z,48.33
2023-07-25T22:03:08.587Z,48.40
2023-07-25T22:05:35.026Z,48.40
2023-07-25T22:08:01.484Z,48.32
2023-07-25T22:10:27.848Z,48.30
2023-07-25T22:12:54.221Z,48.29
2023-07-25T22:15:20.643Z,48.09
2023-07-25T22:17:47.041Z,48.29
2023-07-25T22:20:13.538Z,48.20
2023-07-25T22:22:39.917Z,48.24
2023-07-25T22:25:06.481Z,48.13
2023-07-25T22:27:33.220Z,48.24
2023-07-25T22:29:59.564Z,48.03
2023-07-25T22:32:26.224Z,48.15
2023-07-25T22:34:52.612Z,48.02
2023-07-25T22:37:19.041Z,48.13
2023-07-25T22:39:45.390Z,48.09
2023-07-25T22:42:11.742Z,48.11
2023-07-25T22:44:38.112Z,48.09
2023-07-25T22:47:04.541Z,48.01
2023-07-25T22:49:31.709Z,48.07
2023-07-25T22:51:58.070Z,47.99
2023-07-25T22:54:24.514Z,48.01
2023-07-25T22:56:51.597Z,48.00
2023-07-25T22:59:18.010Z,47.88
2023-07-25T23:01:44.440Z,47.96
2023-07-25T23:04:10.855Z,47.96
2023-07-25T23:06:37.579Z,48.01
2023-07-25T23:09:04.106Z,47.96
2023-07-25T23:11:30.742Z,47.85
2023-07-25T23:13:57.640Z,47.96
2023-07-25T23:16:24.042Z,47.91
2023-07-25T23:18:50.461Z,47.69
2023-07-25T23:21:16.816Z,47.86
2023-07-25T23:23:43.563Z,47.80
2023-07-25T23:26:09.938Z,47.66
2023-07-25T23:28:36.309Z,47.62
2023-07-25T23:31:02.936Z,47.79
2023-07-25T23:33:29.368Z,47.76
2023-07-25T23:35:55.808Z,47.73
2023-07-25T23:38:22.204Z,47.87
2023-07-25T23:40:48.613Z,47.75
2023-07-25T23:43:16.881Z,47.70
2023-07-25T23:45:43.302Z,47.89
2023-07-25T23:48:09.673Z,47.82
2023-07-25T23:50:36.085Z,47.72
2023-07-25T23:53:02.463Z,47.50
2023-07-25T23:55:28.856Z,47.69
2023-07-25T23:57:55.224Z,47.72
